Sensation — C6FM8 — position and weather

sailwx.info

Track history (hours):
 
Tides and Currents Weather Stations Pressure Air Temp Water Temp Dewpoint Dewpoint Depression Visibility Wind Speed Wind Dir Waves Ship Positions

Sensation

Last reported at 2020-Jan-18 20:28 UTC. Time now 2020-Jan-18 21:05 UTC.
Position N 25°47' W 080°10'.

Type: Passenger vessel. MMSI: 309697000.

Date/timePositionNaut miles runAvg speedWind from/ knotsBaromVisibWave heightAir tempDewpointWater temp
2020-Jan-18 20:28N 25°47' W 080°10'0 0.0
2020-Jan-18 19:28N 25°47' W 080°10'612.3
2020-Jan-18 19:00N 25°42' W 080°06'0 0.0 100 / 91024.310.8 25.017.5
2020-Jan-18 18:00N 25°42' W 080°06'6298.9 100 / 151025.510.8 23.018.5
2020-Jan-18 17:58N 25°47' W 080°10'0 0.0
2020-Jan-18 17:28N 25°47' W 080°10'0 0.0
2020-Jan-18 16:28N 25°47' W 080°10'0 0.0
2020-Jan-18 15:28N 25°47' W 080°10'0 0.0
2020-Jan-18 14:58N 25°47' W 080°10'0 0.0
2020-Jan-18 13:28N 25°47' W 080°10'9 3.0
2020-Jan-18 10:30N 25°47' W 080°00'4 8.4
2020-Jan-18 10:00N 25°47' W 079°56'1313.0
2020-Jan-18 09:00N 25°42' W 079°42'5 5.4 110 / 351025.110.8 20.013.5
2020-Jan-18 08:00N 25°42' W 079°36'2214.7 110 / 441024.510.8 20.011.6
2020-Jan-18 06:30N 25°20' W 079°40'6 1.0
2020-Jan-18 00:58N 25°20' W 079°33'1010.7
2020-Jan-18 00:00N 25°30' W 079°36'32 7.5
2020-Jan-17 19:44N 26°02' W 079°32'1310.7
2020-Jan-17 18:30N 26°15' W 079°30'  
Track history (hours):
 
Tides and Currents Weather Stations Pressure Air Temp Water Temp Dewpoint Dewpoint Depression Visibility Wind Speed Wind Dir Waves Ship Positions

Sensation

Last reported at 2020-Jan-18 20:28 UTC. Time now 2020-Jan-18 21:05 UTC.
Position N 25°47' W 080°10'.

Type: Passenger vessel. MMSI: 309697000.

Date/timePositionNaut miles runAvg speedWind from/ knotsBaromVisibWave heightAir tempDewpointWater temp
2020-Jan-18 20:28N 25°47' W 080°10'0 0.0
2020-Jan-18 19:28N 25°47' W 080°10'612.3
2020-Jan-18 19:00N 25°42' W 080°06'0 0.0 100 / 91024.310.8 25.017.5
2020-Jan-18 18:00N 25°42' W 080°06'6298.9 100 / 151025.510.8 23.018.5
2020-Jan-18 17:58N 25°47' W 080°10'0 0.0
2020-Jan-18 17:28N 25°47' W 080°10'0 0.0
2020-Jan-18 16:28N 25°47' W 080°10'0 0.0
2020-Jan-18 15:28N 25°47' W 080°10'0 0.0
2020-Jan-18 14:58N 25°47' W 080°10'0 0.0
2020-Jan-18 13:28N 25°47' W 080°10'9 3.0
2020-Jan-18 10:30N 25°47' W 080°00'4 8.4
2020-Jan-18 10:00N 25°47' W 079°56'1313.0
2020-Jan-18 09:00N 25°42' W 079°42'5 5.4 110 / 351025.110.8 20.013.5
2020-Jan-18 08:00N 25°42' W 079°36'2214.7 110 / 441024.510.8 20.011.6
2020-Jan-18 06:30N 25°20' W 079°40'6 1.0
2020-Jan-18 00:58N 25°20' W 079°33'1010.7
2020-Jan-18 00:00N 25°30' W 079°36'32 7.5
2020-Jan-17 19:44N 26°02' W 079°32'1310.7
2020-Jan-17 18:30N 26°15' W 079°30'  

Dump ship's entire track history